Cleveland, OH

4:01 AM EDT on September 04, 2015 (GMT -0400)
Cleveland-Hopkins International | | Change Station
CLOSE
Current Station
Airport
Location: Cleveland,
Elevation: 804 ft
Nearby Weather Stations

Elev 804 ft 41.40 °N, 81.85 °W | Updated 10 minutes ago

Rain
Rain
67 °F
Feels Like 67 °F
N
7
Wind Variable Wind from SSW

Today
High -- | Low -- °F
--% Chance of Precip.
Yesterday
High -- | Low -- °F
Precip. -- in
6:56 AM 7:55 PM
Waning Gibbous, 62% visible
Pressure 30.00 in
Visibility 10.0 miles
Clouds Few 5000 ft
Mostly Cloudy 11000 ft
Overcast 14000 ft
Dew Point 65 °F
Humidity 93%
Rainfall 0.20 in
Snow Depth Not available.
UV 0 out of 12
Pollen 9.60 out of 12
Air Quality Not available.
Flu Activity Not available.
METAR KCLE 040751Z 20006KT 10SM -RA FEW050 BKN110 OVC140 19/18 A3002 RMK AO2 TSE08 SLP159 P0004 T01940183
Pressure 30.00 in
Visibility 10.0 miles
Clouds Few 5000 ft
Mostly Cloudy 11000 ft
Overcast 14000 ft
Dew Point 65 °F
Humidity 93%
Rainfall 0.20 in
Snow Depth Not available.
UV 0 out of 12
Pollen 9.60 out of 12
Air Quality Not available.
Flu Activity Not available.
METAR KCLE 040751Z 20006KT 10SM -RA FEW050 BKN110 OVC140 19/18 A3002 RMK AO2 TSE08 SLP159 P0004 T01940183

10-Day Weather Forecast

×

Almanac

Astronomy

Sep. 04, 2015 Rise Set
Actual Time
Civil Twilight
Nautical Twilight
Astronomical Twilight
Moon
Length of Visible Light
Length of Day
Tomorrow will be .
, % of the Moon is Illuminated

Today's Extremes

State Highs State Lows

Community

WunderPhotos

Upload Photos

1,852,141 photos uploaded!

WunderBlogs® & News

Nearby

Air Quality

  Air Quality AQ Index Pollutant
Not available.

Snow Depth

Station Depth Elevation

Earthquake Activity

City Distance Mag. Time & Date
Minimum magnitude displayed is 2.5.

Coastal Water Temperatures

Place Temperature

Stations

Nearby Weather Stations

Station Location Temp. Windchill Dew Point Humidity Wind Precip. Elev Updated Type